Date,TemperatureHighF,TemperatureAvgF,TemperatureLowF,DewpointHighF,DewpointAvgF,DewpointLowF,HumidityHigh,HumidityAvg,HumidityLow,PressureMaxIn,PressureMinIn,WindSpeedMaxMPH,WindSpeedAvgMPH,GustSpeedMaxMPH,PrecipitationSumIn
2013-1-1,177.1,4.6,-2.4,99.9,18.5,-10.7,100,73,61,30.27,30.06,0,0,0,0.00
2013-1-2,177.3,13.9,14.7,99.9,32.1,7.0,100,77,64,30.07,29.97,0,0,0,0.00
2013-1-3,21.9,18.3,12.6,99.9,12.1,4.3,100,72,67,30.21,30.05,0,0,0,0.00
2013-1-4,31.1,22.2,13.3,19.6,13.5,5.7,74,69,61,30.16,30.01,0,0,0,0.00
2013-1-5,26.8,18.9,10.9,18.1,11.4,3.9,76,72,69,30.15,29.85,14,0,114,0.00
2013-1-6,26.2,21.6,15.4,16.4,13.1,7.0,74,70,63,30.21,29.94,0,0,0,0.00
2013-1-7,36.7,26.8,17.2,99.9,18.9,8.8,100,70,64,30.13,29.90,0,0,0,0.00
2013-1-8,37.2,28.4,16.9,28.6,20.7,9.9,77,73,68,30.01,29.79,0,0,0,0.00
2013-1-9,37.6,32.6,24.6,25.8,22.8,16.5,74,67,56,30.36,29.88,0,0,0,0.00
2013-1-10,39.4,30.9,21.0,99.9,22.2,14.0,100,69,54,30.39,29.79,0,0,0,0.02
2013-1-11,42.4,36.4,35.2,99.9,33.8,29.0,100,79,77,29.81,29.43,0,0,0,0.02
2013-1-12,43.3,23.0,13.8,99.9,29.3,3.8,100,73,62,30.05,29.42,0,0,0,0.00
2013-1-13,14.7,8.5,9.0,99.9,23.0,0.7,100,72,64,30.23,29.99,0,0,0,0.00
2013-1-14,17.1,7.1,5.2,99.9,31.4,-2.1,100,78,66,30.38,30.22,0,0,0,0.00
2013-1-15,30.9,15.6,6.4,99.9,29.6,-1.0,100,76,60,30.33,29.89,0,0,0,0.00
2013-1-16,34.9,18.8,20.5,99.9,40.8,6.3,100,75,52,30.16,29.68,0,0,0,0.00
2013-1-17,176.5,11.5,12.6,99.9,27.5,-0.6,100,70,53,30.38,30.18,0,0,0,0.00
2013-1-18,41.5,17.1,13.1,99.9,45.0,4.2,100,80,65,30.33,29.73,0,0,0,0.00
2013-1-19,176.0,20.4,8.1,99.9,41.5,-3.4,100,77,53,30.12,29.65,0,0,0,0.00
2013-1-20,11.1,6.3,3.0,99.9,10.7,-6.5,100,65,53,30.35,30.12,0,0,0,0.00
2013-1-21,5.0,-0.9,-4.2,99.9,35.8,-16.1,100,76,54,30.29,30.19,0,0,0,0.00
2013-1-22,4.3,-1.2,-8.0,99.9,26.4,-17.9,100,72,55,30.38,30.24,0,0,0,0.00
2013-1-23,16.7,4.0,-2.2,99.9,27.8,-14.6,100,73,52,30.56,30.10,0,0,0,0.00
2013-1-24,12.4,1.1,-7.6,99.9,34.1,-18.6,100,76,55,30.66,30.25,0,0,0,0.00
2013-1-25,21.4,9.8,10.6,99.9,41.0,1.0,100,78,60,30.26,29.92,0,0,0,0.00
2013-1-26,24.1,12.6,2.1,99.9,19.1,-6.1,100,68,58,30.38,30.18,0,0,0,0.00
2013-1-27,31.8,27.9,22.8,26.1,18.9,11.8,79,69,59,30.19,29.82,0,0,0,0.00
2013-1-28,34.9,32.9,31.6,28.5,26.9,25.9,79,79,77,29.93,29.68,0,0,0,0.00
2013-1-29,35.2,34.1,30.7,29.3,27.8,23.7,79,78,75,29.68,29.51,0,0,0,0.10
2013-1-30,30.7,21.4,13.5,99.9,15.1,4.3,100,72,66,29.68,29.55,14,0,114,0.02
2013-1-31,13.6,8.0,0.3,5.4,-1.2,-9.4,70,66,61,30.19,29.68,0,0,0,0.00
2013-2-1,6.6,0.7,-7.1,-1.8,-9.7,-16.6,68,61,56,30.30,30.08,0,0,0,0.00
2013-2-2,13.6,8.9,3.6,2.7,-0.6,-4.4,71,65,58,30.16,29.96,0,0,0,0.00
2013-2-3,176.7,12.9,10.0,99.9,7.7,1.8,100,66,57,30.03,29.94,0,0,0,0.00
2013-2-4,18.1,10.9,6.1,99.9,17.5,-2.0,100,69,52,30.05,29.85,14,0,114,0.00
2013-2-5,27.3,8.3,9.7,99.9,56.0,1.2,100,84,60,30.08,29.66,14,0,114,0.00
2013-2-6,26.8,8.0,1.2,99.9,47.5,-6.7,100,84,68,30.15,29.98,0,0,0,0.00
2013-2-7,27.3,19.4,25.7,99.9,41.4,19.3,100,83,76,30.23,30.00,14,0,114,0.00
2013-2-8,27.5,14.5,14.7,99.9,40.2,7.0,100,78,58,30.39,30.23,0,0,0,0.00
2013-2-9,30.0,17.2,14.9,99.9,39.6,6.2,100,81,68,30.30,29.99,14,0,114,0.00
2013-2-10,176.2,19.0,27.7,99.9,54.0,20.8,100,86,75,30.00,29.26,14,0,114,0.00
2013-2-11,36.0,19.2,23.7,99.9,52.0,15.7,100,84,71,30.01,29.27,0,0,0,0.02
2013-2-12,35.1,15.5,20.5,99.9,50.3,13.1,100,83,66,30.03,29.80,0,0,0,0.00
2013-2-13,176.0,20.3,24.6,99.9,47.9,17.8,100,82,67,29.80,29.57,0,0,0,0.00
2013-2-14,34.3,20.2,19.4,99.9,44.4,7.7,100,79,58,30.12,29.57,14,0,114,0.00
2013-2-15,176.2,9.8,12.4,99.9,37.5,2.1,100,76,58,30.24,30.12,0,0,0,0.00
2013-2-16,176.2,5.8,3.4,99.9,45.3,-5.5,100,79,56,30.21,30.15,0,0,0,0.00
2013-2-17,27.5,5.5,-4.4,99.9,38.2,-12.7,100,79,58,30.16,29.76,0,0,0,0.00
2013-2-18,37.0,15.3,19.9,99.9,52.4,12.0,100,83,65,29.75,29.51,0,0,0,0.00
2013-2-19,19.8,9.8,6.6,99.9,11.6,-5.1,100,66,54,30.28,29.68,14,0,114,0.00
2013-2-20,21.7,7.0,1.6,99.9,33.4,-8.0,100,74,57,30.41,30.28,14,0,114,0.00
2013-2-21,176.4,9.7,4.1,99.9,34.2,-4.2,100,76,58,30.45,30.10,14,0,114,0.00
2013-2-22,30.9,16.0,21.6,99.9,48.3,11.6,100,83,65,30.09,29.82,14,0,114,0.00
2013-2-23,28.6,24.2,23.9,99.9,23.7,17.4,100,78,74,29.86,29.82,0,0,0,0.00
2013-2-25,33.4,33.4,33.4,25.6,25.6,25.6,73,73,73,30.09,30.09,0,0,0,0.00
2013-2-26,35.8,33.8,30.9,34.7,28.0,24.2,100,80,65,30.01,29.87,0,0,0,0.00
2013-3-2,28.8,27.4,25.2,13.2,13.0,12.9,60,54,51,30.22,30.19,0,0,0,0.00
2013-3-3,33.4,24.9,16.3,16.3,14.8,13.2,100,72,43,30.16,30.04,0,0,0,0.00
2013-3-4,28.9,22.1,26.6,99.9,31.9,11.2,62,59,52,30.04,30.00,0,0,0,0.00
2013-3-6,176.7,22.2,22.5,99.9,34.2,15.4,76,67,58,30.36,30.22,0,0,0,0.00
2013-3-7,35.4,19.7,13.8,99.9,30.6,6.5,72,61,53,30.39,30.34,14,11,114,0.00
2013-3-9,36.7,36.7,36.7,30.5,30.5,30.5,78,78,78,29.76,29.76,0,0,0,0.00
2013-3-10,35.8,34.0,32.2,28.6,27.5,26.4,79,77,75,29.84,29.84,0,0,0,0.00
2013-3-12,23.4,23.4,23.4,16.3,16.3,16.3,74,74,74,29.84,29.84,0,0,0,0.00
2013-3-13,32.5,25.0,19.2,14.1,11.1,8.6,64,56,44,30.32,30.22,0,0,0,0.00
2013-3-14,38.8,34.0,30.4,28.4,25.2,23.0,74,70,66,30.12,30.02,0,0,0,0.00
2013-3-15,31.3,15.6,31.3,99.9,62.4,24.9,79,78,77,29.95,29.87,0,0,0,0.00
2013-3-16,19.8,19.8,19.8,13.9,13.9,13.9,78,78,78,30.02,30.02,0,0,0,0.00
2013-3-17,29.3,24.8,20.3,12.5,10.6,8.6,60,54,49,30.25,30.05,0,0,0,0.00
2013-3-18,28.2,21.7,23.2,99.9,23.2,-21.9,75,72,63,29.95,29.61,0,0,0,0.00
2013-3-19,23.4,19.4,15.4,8.3,7.7,7.0,69,60,52,29.97,29.73,0,0,0,0.00
2013-3-20,18.1,11.6,9.0,99.9,20.9,-3.0,100,64,53,30.13,30.08,0,0,0,0.00
2013-3-21,27.1,24.9,22.6,12.2,10.9,9.6,57,55,53,30.05,30.04,0,0,0,0.00
2013-3-22,34.0,34.0,34.0,18.1,18.1,18.1,52,52,52,30.04,30.04,0,0,0,0.00
2013-3-23,37.2,26.1,19.2,22.0,15.3,11.0,70,64,54,30.13,30.06,0,0,0,0.00
2013-3-24,29.5,29.5,29.5,29.5,29.5,29.5,100,100,100,30.01,30.01,0,0,0,0.00
2013-3-26,38.5,38.5,38.5,23.6,23.6,23.6,55,55,55,30.23,30.23,0,0,0,0.00
2013-3-27,42.1,38.9,31.6,23.0,21.6,20.9,70,51,43,30.32,30.29,0,0,0,0.00
2013-3-28,41.0,31.6,22.3,24.6,19.5,14.3,71,62,52,30.34,30.34,0,0,0,0.00
2013-3-29,28.2,28.2,28.2,19.4,19.4,19.4,69,69,69,30.30,30.30,0,0,0,0.00
2013-4-2,22.3,22.3,22.3,11.2,11.2,11.2,62,62,62,30.23,30.23,0,0,0,0.00
2013-4-7,43.0,27.6,39.7,99.9,54.4,31.4,100,79,65,29.88,29.83,0,0,0,0.00
2013-4-9,38.1,37.8,37.6,31.3,29.3,27.3,78,72,65,30.07,30.04,0,0,0,0.00
2013-4-10,33.1,33.1,33.1,25.6,25.6,25.6,74,74,74,30.10,30.10,0,0,0,0.00
2013-4-11,34.9,25.5,32.7,99.9,44.2,22.8,78,73,61,29.79,29.72,0,0,0,0.00
2013-4-13,32.2,16.1,32.2,99.9,62.7,25.5,76,70,65,29.89,29.86,0,0,0,0.00
2013-4-14,31.6,30.8,30.0,25.3,24.1,23.0,77,76,75,29.93,29.86,0,0,0,0.00
2013-4-16,39.9,38.0,36.1,39.9,33.4,27.3,100,84,68,30.21,30.15,0,0,0,0.00
2013-4-23,34.3,34.3,34.3,23.7,23.7,23.7,65,65,65,30.05,30.05,0,0,0,0.00
2013-4-24,52.7,50.0,47.3,32.3,30.6,29.5,52,48,42,29.97,29.90,0,0,0,0.00
2013-4-26,69.1,69.1,69.1,43.0,43.0,43.0,39,39,39,30.05,30.05,0,0,0,0.00
2013-4-27,50.9,46.8,42.8,43.2,38.8,34.5,75,74,72,30.13,30.13,0,0,0,0.00
2013-4-28,75.9,67.8,46.9,49.2,46.2,38.4,72,48,39,29.92,29.72,0,0,0,0.00
2013-5-6,77.4,77.4,77.4,47.4,47.4,47.4,35,35,35,30.02,30.02,0,0,0,0.00
2013-5-7,58.8,29.4,58.8,99.9,72.8,45.8,100,81,62,30.07,29.99,0,0,0,0.00
2013-5-8,77.9,69.2,49.8,47.7,45.5,40.8,71,45,33,30.02,29.94,0,0,0,0.00
2013-5-9,58.3,58.3,58.3,46.1,46.1,46.1,64,64,64,29.98,29.98,0,0,0,0.00
2013-5-11,47.8,47.6,47.3,29.6,28.8,28.4,50,48,47,30.01,30.01,16,16,114,0.00
2013-5-18,63.7,63.7,63.7,54.9,54.9,54.9,73,73,73,29.95,29.95,0,0,0,0.00
2013-5-19,77.0,71.5,66.0,62.1,59.8,57.5,74,67,60,29.74,29.69,14,14,114,0.00
2013-5-29,75.0,75.0,75.0,65.4,65.4,65.4,72,72,72,29.80,29.80,14,14,14,0.00
2013-6-10,77.0,71.9,66.9,61.0,59.5,58.0,73,66,58,29.85,29.83,0,0,111,0.00
2013-6-11,73.0,66.8,57.9,63.2,58.6,51.1,78,75,71,29.89,29.87,14,6,111,0.00
2013-6-12,68.2,68.2,68.2,60.3,60.3,60.3,76,76,76,29.81,29.81,0,0,57,0.00
2013-6-15,64.2,64.2,64.2,57.2,57.2,57.2,78,78,78,29.92,29.92,86,86,86,0.00
2013-6-16,70.3,70.3,70.3,59.7,59.7,59.7,69,69,69,29.91,29.91,0,0,0,0.00
2013-6-17,78.4,78.4,78.4,56.5,56.5,56.5,47,47,47,29.92,29.92,0,0,0,0.00
2013-6-21,69.6,69.6,69.6,61.7,61.7,61.7,76,76,76,29.85,29.83,28,19,114,0.02
2013-6-26,72.7,72.7,72.7,64.7,64.7,64.7,76,76,76,29.76,29.76,0,0,14,0.00
2013-6-27,85.6,85.6,85.6,61.8,61.8,61.8,45,45,45,29.75,29.75,0,0,0,0.00
2013-6-28,70.7,70.7,70.7,62.7,62.7,62.7,76,76,76,29.72,29.72,0,0,0,0.00
2013-6-29,68.5,68.3,68.2,58.1,58.0,58.0,70,70,69,29.87,29.87,26,26,114,0.00
2013-6-30,53.2,53.2,53.2,46.2,46.2,46.2,77,77,77,30.03,30.03,0,0,0,0.00
2013-7-1,75.6,51.9,57.0,99.9,64.8,49.8,77,62,45,30.18,30.14,0,0,0,0.00
2013-7-3,72.5,72.5,72.5,59.1,59.1,59.1,63,63,63,30.07,30.07,0,0,0,0.00
2013-7-4,88.3,87.6,86.9,64.8,64.5,64.2,47,46,46,29.95,29.95,0,0,0,0.00
2013-7-7,87.6,85.2,82.8,70.5,69.7,68.8,63,60,57,29.89,29.87,0,0,0,0.00
2013-7-8,86.4,54.1,75.9,99.9,79.0,67.4,100,78,58,29.99,29.94,0,0,0,0.00
2013-7-9,84.7,78.3,72.0,68.3,66.5,64.7,78,68,58,29.82,3.61,0,0,0,0.02
2013-7-10,78.6,73.9,69.3,59.4,58.0,56.6,71,59,47,30.00,29.95,0,0,0,0.00
2013-7-12,77.9,76.3,73.8,62.0,60.1,59.0,61,58,54,30.08,30.00,0,0,0,0.00
2013-7-14,76.3,76.3,76.3,64.1,64.1,64.1,66,66,66,30.19,30.19,0,0,0,0.00
2013-7-17,90.3,84.1,76.3,70.8,70.0,68.5,77,64,53,30.26,30.23,0,0,0,0.00
2013-7-23,73.2,72.1,70.9,52.8,52.3,51.8,51,50,49,30.00,29.99,0,0,0,0.00
2013-7-25,70.0,70.0,70.0,60.1,60.1,60.1,71,71,71,29.98,29.98,0,0,0,0.00
2013-8-3,65.1,65.1,65.1,50.9,50.9,50.9,60,60,60,30.16,30.16,0,0,0,0.00
2013-8-4,64.2,64.2,64.2,53.5,53.5,53.5,68,68,68,30.24,30.24,0,0,0,0.00
2013-8-5,67.8,64.1,60.4,60.8,57.0,53.2,78,78,77,30.01,29.84,0,0,0,0.00
2013-8-6,70.9,70.9,70.9,59.3,59.3,59.3,67,67,67,29.83,29.83,0,0,0,0.00
2013-8-7,77.4,77.4,77.4,55.5,55.5,55.5,47,47,47,29.95,29.95,0,0,0,0.00
2013-8-8,74.8,74.8,74.8,54.4,54.4,54.4,49,49,49,29.99,29.99,0,0,0,0.00
2013-8-10,74.1,69.5,63.5,53.4,52.9,52.5,68,56,47,30.17,30.11,0,0,0,0.00
2013-8-11,60.4,60.2,60.1,52.5,52.3,52.2,75,75,75,30.10,30.10,0,0,0,0.00
2013-8-16,81.3,81.3,81.3,56.0,56.0,56.0,42,42,42,30.16,30.16,0,0,0,0.00
2013-8-22,70.6,69.0,66.3,59.4,54.6,51.7,72,60,54,30.11,30.08,2,0,8,0.00
2013-8-23,87.4,71.1,54.0,65.1,59.5,51.7,94,70,42,30.15,30.05,4,1,12,0.00
2013-8-24,87.1,74.6,63.6,72.2,64.8,54.9,89,72,57,30.15,29.98,5,2,17,0.02
2013-8-25,95.3,84.9,76.9,75.4,72.6,69.8,81,68,50,30.03,29.92,7,2,17,0.00
2013-8-26,96.5,86.1,79.0,76.5,73.6,70.8,80,67,49,29.99,29.81,5,1,14,0.00
2013-8-27,96.0,84.3,75.9,79.0,74.1,70.9,86,72,51,29.85,29.73,5,1,13,0.00
2013-8-28,88.9,78.3,69.9,73.4,71.1,68.4,96,80,56,29.98,29.85,3,0,8,0.00
2013-8-29,93.8,81.4,70.8,76.0,72.6,68.4,92,76,52,30.00,29.83,4,1,12,0.00
2013-8-30,85.0,78.5,69.1,74.9,69.0,63.4,95,74,52,29.86,29.75,6,1,16,0.00
2013-8-31,88.9,74.2,61.2,68.7,64.5,59.5,95,74,47,29.87,29.70,3,1,10,0.00
2013-9-1,79.0,72.0,62.7,68.4,63.1,55.0,94,75,52,29.90,29.69,4,1,14,0.00
2013-9-2,71.2,62.1,51.2,55.0,51.9,48.4,91,70,48,30.04,29.90,4,1,12,0.00
2013-9-3,77.0,59.7,43.3,55.6,50.7,42.2,97,75,44,30.10,29.98,3,1,10,0.00
2013-9-4,84.1,67.4,51.6,66.1,58.0,49.9,95,74,50,30.15,30.02,3,0,9,0.00
2013-9-5,83.9,67.1,53.1,61.1,56.2,50.3,94,71,35,30.24,30.12,3,1,8,0.00
2013-9-6,90.0,74.3,59.7,67.8,62.8,56.5,92,70,43,30.12,29.87,5,1,15,0.00
2013-9-7,93.2,78.7,66.8,70.7,66.5,62.9,88,68,43,29.99,29.82,5,1,15,0.00
2013-9-8,78.0,69.9,60.6,64.1,58.6,52.3,84,69,49,30.06,29.90,4,2,12,0.00
2013-9-9,91.0,77.6,66.9,75.8,68.2,63.5,90,74,53,29.90,29.61,5,1,15,0.00
2013-9-10,84.7,76.6,70.1,70.0,66.7,63.9,90,72,52,29.92,29.68,4,1,9,0.00
2013-9-11,87.4,73.0,60.4,65.7,58.5,50.3,91,64,31,30.00,29.92,7,1,17,0.00
2013-9-12,71.5,62.0,53.1,55.6,50.9,46.1,88,69,42,30.22,29.96,5,1,16,0.00
2013-9-13,70.5,54.6,40.5,48.6,43.6,39.2,97,70,38,30.28,30.11,4,0,12,0.00
2013-9-14,74.5,57.9,41.2,57.4,46.9,39.2,95,71,40,30.12,29.92,5,1,14,0.53
2013-9-15,68.1,57.9,46.5,57.2,53.1,42.5,96,85,67,30.32,29.90,6,1,18,0.36
2013-9-16,67.8,51.0,37.3,44.5,40.6,36.3,97,72,34,30.45,30.29,4,1,8,0.00
2013-9-17,67.3,55.4,42.6,56.4,48.2,41.0,95,78,52,30.33,30.01,5,1,16,0.13
2013-9-18,74.9,65.7,58.0,68.7,63.1,56.3,97,92,80,30.00,29.75,4,1,12,0.28
2013-9-19,81.2,71.0,65.6,71.9,67.8,64.4,97,90,72,29.76,29.66,5,1,17,0.50
2013-9-20,66.9,61.7,53.2,64.6,56.0,49.6,95,82,63,29.87,29.69,6,2,17,0.01
2013-9-21,64.9,53.9,44.1,50.0,46.5,42.8,95,78,51,29.97,29.87,4,1,11,0.00
2013-9-22,68.6,53.8,38.7,49.5,45.1,37.7,97,75,48,30.06,29.94,4,1,11,0.00
2013-9-23,72.4,59.1,47.5,53.0,49.0,44.3,90,71,45,30.05,29.95,5,2,15,0.00
2013-9-24,75.1,59.4,44.9,55.2,50.1,43.6,96,75,42,30.02,29.92,4,1,12,0.00
2013-9-25,72.1,57.6,45.0,55.1,50.0,44.0,97,79,47,30.01,29.92,4,1,11,0.00
2013-9-26,78.3,62.2,47.0,59.8,53.4,46.0,97,75,52,30.02,29.93,6,2,15,0.01
2013-9-27,81.2,70.0,58.8,63.1,56.7,51.2,79,64,52,30.01,29.86,8,2,20,0.00
2013-9-28,73.0,62.3,51.5,63.5,54.2,48.4,95,76,52,29.94,29.66,7,2,22,0.32
2013-9-29,74.7,57.5,40.7,51.2,46.8,39.9,98,72,38,30.00,29.88,3,1,10,0.00
2013-9-30,75.7,63.3,52.9,54.3,49.8,47.0,82,63,39,29.88,29.67,7,2,22,0.00
2013-10-1,77.1,65.5,45.4,57.1,47.8,34.0,88,57,22,29.96,29.64,5,1,16,0.00
2013-10-2,76.3,58.3,38.2,54.0,42.6,37.0,97,63,26,30.09,29.87,4,1,13,0.14
2013-10-3,60.0,57.1,54.1,58.4,55.5,53.0,97,94,89,29.95,29.80,6,1,14,0.58
2013-10-4,59.8,57.5,55.5,58.4,55.7,54.3,96,94,90,30.00,29.89,4,1,16,0.06
2013-10-5,63.1,58.7,48.2,62.2,57.5,47.4,97,96,91,29.94,29.68,7,1,16,0.92
2013-10-6,57.0,48.9,39.4,49.2,44.3,38.9,99,86,58,29.79,29.68,3,0,8,0.05
2013-10-7,66.3,51.6,42.3,49.5,43.8,39.1,97,79,37,30.03,29.79,4,1,12,0.01
2013-10-8,75.6,58.7,40.1,49.9,45.1,39.1,97,65,36,30.04,29.92,5,2,15,0.00
2013-10-9,75.6,63.0,48.4,54.6,50.3,46.1,94,65,46,30.09,29.98,6,1,15,0.00
2013-10-10,73.7,56.7,43.1,52.2,47.6,41.8,96,75,43,30.10,29.96,5,1,13,0.00
2013-10-11,75.7,63.5,48.9,58.3,53.0,47.0,94,71,49,29.97,29.74,10,3,26,0.00
2013-10-12,69.6,57.6,48.1,56.5,45.9,40.2,79,66,49,30.14,29.73,7,3,25,0.00
2013-10-13,61.3,47.4,36.4,43.0,38.0,34.9,96,74,38,30.43,30.14,3,0,15,0.00
2013-10-14,57.7,47.0,33.1,44.0,37.8,32.1,96,73,48,30.45,30.04,6,2,18,0.00
2013-10-15,56.3,50.3,47.1,53.3,48.1,43.1,96,92,74,30.05,29.68,6,2,17,0.80
2013-10-16,48.6,44.7,33.4,47.5,42.1,32.4,97,91,79,29.94,29.74,3,1,10,0.01
2013-10-17,54.2,42.5,30.2,45.0,38.7,29.5,98,88,61,29.92,29.79,2,0,8,0.02
2013-10-18,52.3,43.4,32.7,45.1,37.7,30.2,95,82,44,29.94,29.78,4,1,12,0.14
2013-10-19,47.2,39.2,32.7,39.8,35.4,31.5,96,87,71,29.87,29.71,5,1,12,0.03
2013-10-20,43.3,36.6,27.6,41.1,35.0,26.9,97,94,87,29.83,29.66,4,1,14,0.17
2013-10-21,37.5,35.9,33.3,35.2,27.0,20.7,92,71,52,29.95,29.83,6,3,17,0.00
2013-10-22,39.4,33.3,25.1,30.9,27.7,23.3,96,80,68,30.05,29.95,4,0,9,0.00
2013-10-23,39.3,32.6,22.8,32.6,27.9,21.3,96,83,66,30.10,30.01,4,0,11,0.00
2013-10-24,42.8,37.3,32.4,31.3,28.0,24.9,79,69,53,30.32,30.09,4,1,12,0.00
2013-10-25,54.7,42.0,35.2,39.8,24.2,-99.9,84,60,49,30.33,29.76,9,-67,23,0.00
2013-10-26,53.5,44.7,32.1,41.1,33.0,28.4,86,64,51,30.08,29.74,6,2,18,0.00
2013-10-27,61.1,42.4,26.3,35.1,30.8,24.8,95,68,36,30.14,29.82,6,1,15,0.00
2013-10-28,44.0,36.3,26.5,32.9,25.3,21.9,85,65,45,30.46,30.14,5,2,19,0.00
2013-10-29,42.5,36.1,25.7,37.1,30.0,22.2,88,78,70,30.46,30.14,3,0,8,0.00
2013-10-30,52.5,46.1,39.3,51.4,44.8,36.8,97,95,89,30.14,29.69,3,0,9,0.22
2013-10-31,52.6,47.7,40.6,51.5,46.5,39.0,97,95,92,29.68,29.35,4,1,13,0.03
2013-11-1,45.7,42.3,39.7,40.8,38.9,34.9,96,88,76,29.83,29.35,4,1,12,0.01
2013-11-2,46.6,38.5,28.0,36.6,33.5,26.8,96,82,65,30.16,29.83,3,0,8,0.00
2013-11-3,51.8,39.5,26.6,35.4,28.1,-99.9,96,71,52,30.23,30.02,7,-28,20,0.01
2013-11-4,47.0,43.8,32.5,44.5,38.7,31.5,97,83,63,30.17,29.92,7,3,19,0.23
2013-11-5,43.4,35.6,27.7,41.0,34.2,27.0,97,95,88,30.29,29.96,4,1,15,0.46
2013-11-6,42.0,34.9,26.0,33.8,29.0,24.2,96,80,52,30.18,29.94,5,2,15,0.14
2013-11-7,35.6,28.9,22.6,30.0,26.2,21.4,96,90,78,30.27,30.18,3,0,8,0.00
2013-11-8,45.3,32.8,19.6,37.9,27.7,18.2,96,83,60,30.26,29.66,7,2,21,0.06
2013-11-9,46.3,42.5,37.9,43.0,35.2,27.7,88,76,60,30.14,29.65,11,4,24,0.00
2013-11-10,45.8,40.4,36.1,32.4,29.7,26.7,74,66,51,30.34,30.10,5,2,15,0.00
2013-11-11,40.5,25.8,18.5,32.1,8.6,-99.9,91,58,44,30.71,30.09,6,-67,17,0.01
2013-11-12,28.6,17.8,13.9,13.7,-5.3,-99.9,80,57,47,30.82,30.56,5,-151,12,0.00
2013-11-13,48.4,33.6,15.3,31.4,22.8,11.4,85,66,50,30.55,29.93,9,2,21,0.00
2013-11-14,43.9,34.9,27.7,35.1,22.3,-99.9,95,72,65,29.93,29.80,4,-65,9,0.00
2013-11-15,54.8,39.2,23.9,39.8,33.0,22.7,97,80,54,29.91,29.75,3,1,9,0.00
2013-11-16,56.8,46.7,42.8,53.3,42.5,35.4,96,85,73,29.75,29.27,9,3,19,0.19
2013-11-17,45.9,40.7,33.2,43.1,37.0,26.9,96,87,75,29.75,29.32,8,2,28,0.06
2013-11-18,33.3,28.3,17.8,27.2,21.7,16.1,94,76,69,30.31,29.76,8,2,26,0.00
2013-11-19,41.0,29.7,15.4,25.3,21.0,13.8,94,72,51,30.36,30.08,7,3,18,0.00
2013-11-20,42.0,37.6,33.0,33.0,28.3,23.4,95,72,49,30.09,30.02,8,3,19,0.08
2013-11-21,36.8,32.7,25.5,36.0,31.0,23.2,97,94,85,30.47,30.09,5,1,13,0.22
2013-11-22,31.5,24.4,18.6,23.0,16.8,9.5,92,73,48,30.60,30.47,6,2,15,0.00
2013-11-23,19.6,12.7,5.1,11.7,3.6,1.6,86,67,50,30.84,30.57,4,2,16,0.00
2013-11-24,26.8,15.9,2.3,14.0,5.9,-0.7,90,67,45,30.78,30.11,7,2,18,0.00
2013-11-25,38.8,33.0,26.8,29.2,23.5,14.0,76,68,58,30.11,29.95,8,4,20,0.01
2013-11-26,32.7,21.7,13.0,21.9,10.0,3.4,81,60,49,30.38,30.05,6,2,18,0.00
2013-11-27,25.7,18.1,7.8,13.0,9.2,4.8,88,69,51,30.41,30.17,2,1,8,0.00
2013-11-28,28.2,23.4,12.8,16.0,13.3,9.0,87,65,56,30.56,30.14,3,1,11,0.00
2013-11-29,30.3,20.9,7.2,21.2,14.3,5.0,92,76,61,30.62,30.27,5,1,13,0.00
2013-11-30,38.8,32.6,24.0,29.0,25.3,20.4,87,75,65,30.27,30.05,4,0,9,0.00
2013-12-1,37.5,26.5,17.4,27.2,22.6,15.7,94,86,63,30.22,30.00,2,0,4,0.00
2013-12-2,36.3,29.3,20.2,33.0,27.1,18.5,95,91,83,29.99,29.70,5,1,13,0.14
2013-12-3,34.7,33.2,30.4,33.3,31.7,28.9,96,94,93,29.83,29.67,5,2,12,0.13
2013-12-4,35.0,31.7,24.1,34.0,30.1,20.5,97,94,84,29.83,29.44,10,2,22,0.00
2013-12-5,23.8,10.6,3.7,20.0,5.5,-0.5,86,79,73,30.39,29.64,10,5,25,0.00
2013-12-6,8.0,2.0,-2.0,1.0,-3.0,-6.9,84,79,70,30.71,30.39,5,2,12,0.00
2013-12-7,5.4,-1.8,-7.8,-2.8,-7.2,-12.0,87,77,63,30.82,30.69,4,1,12,0.00
2013-12-8,11.9,6.9,-1.0,8.5,3.3,-5.0,89,85,76,30.69,30.10,2,0,8,0.00
2013-12-9,11.0,3.3,-7.0,8.3,-1.2,-10.3,90,81,68,30.19,30.03,8,2,20,0.00
2013-12-10,9.6,5.0,-4.5,6.0,-0.1,-8.1,91,79,68,30.29,29.88,7,2,18,0.01
2013-12-11,9.3,-1.5,-6.4,5.4,-7.8,-11.6,85,74,61,30.62,30.29,5,1,15,0.00
2013-12-12,18.1,9.5,-2.3,13.3,4.1,-7.4,88,78,66,30.49,30.23,3,0,9,0.00
2013-12-13,18.1,14.9,12.2,13.4,8.4,5.7,82,75,68,30.35,30.21,4,1,13,0.00
2013-12-14,19.3,13.1,7.4,14.2,9.2,2.3,88,84,79,30.35,30.08,5,0,12,0.00
2013-12-15,7.2,0.2,-7.2,2.1,-6.2,-11.5,85,74,60,30.26,30.09,4,1,12,0.00
2013-12-16,16.6,5.7,-5.1,14.2,1.0,-8.8,91,80,67,30.24,29.99,3,0,9,0.00
2013-12-17,30.5,23.2,9.7,27.4,17.6,4.7,94,79,67,30.15,29.89,7,2,19,0.00
2013-12-18,31.9,17.6,4.0,20.9,12.4,1.5,93,81,62,30.14,29.72,7,1,14,0.00
2013-12-19,23.0,18.8,12.2,16.3,14.2,10.1,94,82,72,30.12,29.82,5,1,14,0.00
2013-12-20,20.4,18.6,16.4,17.3,14.3,12.0,89,83,76,30.07,29.90,3,1,12,0.00
2013-12-21,25.8,22.3,20.1,19.5,18.0,16.9,89,83,75,30.02,29.89,3,1,11,0.00
2013-12-22,26.5,22.6,15.5,22.9,19.0,12.6,91,86,81,30.20,29.92,3,1,9,0.00
2013-12-23,15.4,5.6,-3.9,12.5,1.7,-7.3,89,83,76,30.55,30.21,4,2,12,0.00
2013-12-24,10.7,2.3,-8.4,7.2,-1.9,-11.7,88,82,72,30.58,30.27,5,1,15,0.00
2013-12-25,20.8,15.0,9.2,18.0,11.2,4.8,89,85,80,30.26,30.10,3,0,9,0.00
2013-12-26,24.6,18.5,12.4,19.5,14.3,8.6,92,83,76,30.24,30.15,3,0,6,0.00
2013-12-27,40.0,24.0,7.6,30.7,20.3,5.3,94,86,69,30.24,29.93,5,1,12,0.08
2013-12-28,45.7,30.7,19.5,33.4,26.6,17.9,96,86,59,30.04,29.70,7,1,16,0.11
2013-12-29,27.5,5.7,-11.2,23.1,-1.4,-16.6,87,72,53,30.37,29.88,8,2,20,0.00
2013-12-30,0.4,-6.5,-16.2,-4.7,-11.6,-20.0,83,78,61,30.41,30.30,1,0,5,0.00
2013-12-31,0.8,-4.1,-13.1,-4.0,-8.9,-16.4,86,80,66,30.52,30.28,4,0,10,0.00
2014-1-1,5.9,-0.8,-13.0,-2.3,-7.5,-16.4,84,73,65,30.59,30.50,3,0,7,0.00
2014-1-2,7.2,-0.0,-12.0,-2.0,-5.9,-15.4,85,76,62,30.55,30.47,2,0,7,0.00